sensor_id;sensor_type;location;lat;lon;timestamp;pressure;altitude;pressure_sealevel;temperature;humidity
61573;BME280;47465;43.094;12.434;2023-02-21T00:01:00;99619.41;;;8.53;100.00
61573;BME280;47465;43.094;12.434;2023-02-21T00:04:02;99602.66;;;8.47;100.00
61573;BME280;47465;43.094;12.434;2023-02-21T00:07:02;99597.38;;;8.34;100.00
61573;BME280;47465;43.094;12.434;2023-02-21T00:10:01;99577.19;;;8.04;100.00
61573;BME280;47465;43.094;12.434;2023-02-21T00:13:01;99572.78;;;8.00;100.00
61573;BME280;47465;43.094;12.434;2023-02-21T00:16:00;99586.84;;;8.19;100.00
61573;BME280;47465;43.094;12.434;2023-02-21T00:19:18;99584.19;;;8.19;100.00
61573;BME280;47465;43.094;12.434;2023-02-21T00:22:22;99586.88;;;8.13;100.00
61573;BME280;47465;43.094;12.434;2023-02-21T00:25:25;99588.66;;;8.08;100.00
61573;BME280;47465;43.094;12.434;2023-02-21T00:28:27;99564.88;;;7.92;100.00
61573;BME280;47465;43.094;12.434;2023-02-21T00:31:27;99558.66;;;7.98;100.00
61573;BME280;47465;43.094;12.434;2023-02-21T00:34:25;99565.69;;;8.08;100.00
61573;BME280;47465;43.094;12.434;2023-02-21T00:37:24;99563.91;;;8.12;100.00
61573;BME280;47465;43.094;12.434;2023-02-21T00:40:24;99576.28;;;8.11;100.00
61573;BME280;47465;43.094;12.434;2023-02-21T00:43:28;99578.06;;;8.09;100.00
61573;BME280;47465;43.094;12.434;2023-02-21T00:46:29;99571.84;;;8.15;100.00
61573;BME280;47465;43.094;12.434;2023-02-21T00:49:24;99567.41;;;8.17;100.00
61573;BME280;47465;43.094;12.434;2023-02-21T00:52:25;99558.59;;;8.15;100.00
61573;BME280;47465;43.094;12.434;2023-02-21T00:55:25;99560.38;;;8.16;100.00
61573;BME280;47465;43.094;12.434;2023-02-21T00:58:25;99559.50;;;8.14;100.00
61573;BME280;47465;43.094;12.434;2023-02-21T01:01:24;99574.47;;;8.22;100.00
61573;BME280;47465;43.094;12.434;2023-02-21T01:04:25;99551.53;;;8.17;100.00
61573;BME280;47465;43.094;12.434;2023-02-21T01:07:24;99549.75;;;8.20;100.00
61573;BME280;47465;43.094;12.434;2023-02-21T01:10:24;99561.22;;;8.21;100.00
61573;BME280;47465;43.094;12.434;2023-02-21T01:13:24;99553.28;;;8.21;100.00
61573;BME280;47465;43.094;12.434;2023-02-21T01:16:22;99561.19;;;8.29;100.00
61573;BME280;47465;43.094;12.434;2023-02-21T01:19:25;99549.75;;;8.22;100.00
61573;BME280;47465;43.094;12.434;2023-02-21T01:22:25;99555.00;;;8.31;100.00
61573;BME280;47465;43.094;12.434;2023-02-21T01:25:24;99558.53;;;8.32;100.00
61573;BME280;47465;43.094;12.434;2023-02-21T01:28:24;99550.56;;;8.32;100.00
61573;BME280;47465;43.094;12.434;2023-02-21T01:31:42;99544.38;;;8.36;100.00
61573;BME280;47465;43.094;12.434;2023-02-21T01:34:41;99526.75;;;8.26;100.00
61573;BME280;47465;43.094;12.434;2023-02-21T01:37:40;99539.97;;;8.30;100.00
61573;BME280;47465;43.094;12.434;2023-02-21T01:40:41;99540.03;;;8.24;100.00
61573;BME280;47465;43.094;12.434;2023-02-21T01:43:57;99552.38;;;8.25;100.00
61573;BME280;47465;43.094;12.434;2023-02-21T01:46:57;99535.59;;;8.21;100.00
61573;BME280;47465;43.094;12.434;2023-02-21T01:49:57;99527.69;;;8.20;100.00
61573;BME280;47465;43.094;12.434;2023-02-21T01:52:58;99528.56;;;8.20;100.00
61573;BME280;47465;43.094;12.434;2023-02-21T01:56:00;99529.44;;;8.21;100.00
61573;BME280;47465;43.094;12.434;2023-02-21T01:59:01;99532.06;;;8.19;100.00
61573;BME280;47465;43.094;12.434;2023-02-21T02:02:03;99524.16;;;8.15;100.00
61573;BME280;47465;43.094;12.434;2023-02-21T02:05:07;99527.69;;;8.20;100.00
61573;BME280;47465;43.094;12.434;2023-02-21T02:08:07;99525.00;;;8.21;100.00
61573;BME280;47465;43.094;12.434;2023-02-21T02:11:19;99521.50;;;8.18;100.00
61573;BME280;47465;43.094;12.434;2023-02-21T02:17:25;99528.56;;;8.19;100.00
61573;BME280;47465;43.094;12.434;2023-02-21T02:23:12;99525.03;;;8.15;100.00
61573;BME280;47465;43.094;12.434;2023-02-21T02:25:59;99522.38;;;8.17;100.00
61573;BME280;47465;43.094;12.434;2023-02-21T02:28:47;99523.25;;;8.20;100.00
61573;BME280;47465;43.094;12.434;2023-02-21T02:31:32;99517.09;;;8.17;100.00
61573;BME280;47465;43.094;12.434;2023-02-21T02:37:02;99517.97;;;8.19;100.00
61573;BME280;47465;43.094;12.434;2023-02-21T02:39:38;99500.38;;;8.07;100.00
61573;BME280;47465;43.094;12.434;2023-02-21T02:42:10;99500.34;;;8.09;100.00
61573;BME280;47465;43.094;12.434;2023-02-21T02:44:45;99490.69;;;8.05;100.00
61573;BME280;47465;43.094;12.434;2023-02-21T02:47:18;99496.75;;;8.17;100.00
61573;BME280;47465;43.094;12.434;2023-02-21T02:49:47;99480.97;;;8.05;100.00
61573;BME280;47465;43.094;12.434;2023-02-21T02:52:16;99488.84;;;8.16;100.00
61573;BME280;47465;43.094;12.434;2023-02-21T02:54:42;99469.44;;;8.11;100.00
61573;BME280;47465;43.094;12.434;2023-02-21T02:57:10;99471.19;;;8.09;100.00
61573;BME280;47465;43.094;12.434;2023-02-21T02:59:40;99485.28;;;8.15;100.00
61573;BME280;47465;43.094;12.434;2023-02-21T03:02:24;99481.78;;;8.15;100.00
61573;BME280;47465;43.094;12.434;2023-02-21T03:05:10;99487.06;;;8.18;100.00
61573;BME280;47465;43.094;12.434;2023-02-21T03:07:48;99467.72;;;8.03;100.00
61573;BME280;47465;43.094;12.434;2023-02-21T03:10:21;99465.91;;;8.12;100.00
61573;BME280;47465;43.094;12.434;2023-02-21T03:12:53;99465.03;;;8.10;100.00
61573;BME280;47465;43.094;12.434;2023-02-21T03:15:24;99492.38;;;8.16;100.00
61573;BME280;47465;43.094;12.434;2023-02-21T03:17:56;99474.69;;;8.20;100.00
61573;BME280;47465;43.094;12.434;2023-02-21T03:20:25;99473.81;;;8.15;100.00
61573;BME280;47465;43.094;12.434;2023-02-21T03:22:54;99465.03;;;8.08;100.00
61573;BME280;47465;43.094;12.434;2023-02-21T03:25:23;99468.56;;;8.09;100.00
61573;BME280;47465;43.094;12.434;2023-02-21T03:27:50;99466.78;;;8.12;100.00
61573;BME280;47465;43.094;12.434;2023-02-21T03:30:19;99474.63;;;8.31;100.00
61573;BME280;47465;43.094;12.434;2023-02-21T03:32:47;99460.53;;;8.24;100.00
61573;BME280;47465;43.094;12.434;2023-02-21T03:35:14;99465.88;;;8.15;100.00
61573;BME280;47465;43.094;12.434;2023-02-21T03:37:42;99464.13;;;8.14;100.00
61573;BME280;47465;43.094;12.434;2023-02-21T03:40:12;99464.97;;;8.20;100.00
61573;BME280;47465;43.094;12.434;2023-02-21T03:42:38;99479.94;;;8.29;100.00
61573;BME280;47465;43.094;12.434;2023-02-21T03:45:04;99457.09;;;8.10;100.00
61573;BME280;47465;43.094;12.434;2023-02-21T03:47:31;99460.63;;;8.07;100.00
61573;BME280;47465;43.094;12.434;2023-02-21T03:49:57;99465.00;;;8.16;100.00
61573;BME280;47465;43.094;12.434;2023-02-21T03:52:23;99478.19;;;8.25;100.00
61573;BME280;47465;43.094;12.434;2023-02-21T03:54:48;99483.47;;;8.27;100.00
61573;BME280;47465;43.094;12.434;2023-02-21T03:57:16;99479.13;;;8.16;100.00
61573;BME280;47465;43.094;12.434;2023-02-21T03:59:42;99478.28;;;8.11;100.00
61573;BME280;47465;43.094;12.434;2023-02-21T04:02:08;99480.91;;;8.13;100.00
61573;BME280;47465;43.094;12.434;2023-02-21T04:04:34;99501.16;;;8.23;100.00
61573;BME280;47465;43.094;12.434;2023-02-21T04:07:00;99474.75;;;8.06;100.00
61573;BME280;47465;43.094;12.434;2023-02-21T04:09:26;99485.31;;;8.12;100.00
61573;BME280;47465;43.094;12.434;2023-02-21T04:11:52;99476.50;;;8.09;100.00
61573;BME280;47465;43.094;12.434;2023-02-21T04:14:19;99467.69;;;8.08;100.00
61573;BME280;47465;43.094;12.434;2023-02-21T04:16:45;99490.56;;;8.21;100.00
61573;BME280;47465;43.094;12.434;2023-02-21T04:19:11;99493.22;;;8.21;100.00
61573;BME280;47465;43.094;12.434;2023-02-21T04:21:37;99472.97;;;8.08;100.00
61573;BME280;47465;43.094;12.434;2023-02-21T04:24:03;99480.91;;;8.16;100.00
61573;BME280;47465;43.094;12.434;2023-02-21T04:26:29;99484.41;;;8.16;100.00
61573;BME280;47465;43.094;12.434;2023-02-21T04:28:55;99481.72;;;8.26;100.00
61573;BME280;47465;43.094;12.434;2023-02-21T04:31:23;99460.59;;;8.12;100.00
61573;BME280;47465;43.094;12.434;2023-02-21T04:33:48;99488.78;;;8.25;100.00
61573;BME280;47465;43.094;12.434;2023-02-21T04:36:14;99472.97;;;8.07;100.00
61573;BME280;47465;43.094;12.434;2023-02-21T04:38:40;99477.31;;;8.25;100.00
61573;BME280;47465;43.094;12.434;2023-02-21T04:41:06;99497.53;;;8.39;100.00
61573;BME280;47465;43.094;12.434;2023-02-21T04:43:32;99479.91;;;8.34;100.00
61573;BME280;47465;43.094;12.434;2023-02-21T04:45:58;99492.31;;;8.27;100.00
61573;BME280;47465;43.094;12.434;2023-02-21T04:48:26;99487.06;;;8.16;100.00
61573;BME280;47465;43.094;12.434;2023-02-21T04:50:52;99492.31;;;8.27;100.00
61573;BME280;47465;43.094;12.434;2023-02-21T04:53:17;99481.75;;;8.19;100.00
61573;BME280;47465;43.094;12.434;2023-02-21T04:55:43;99474.75;;;8.06;100.00
61573;BME280;47465;43.094;12.434;2023-02-21T04:58:09;99469.50;;;7.95;100.00
61573;BME280;47465;43.094;12.434;2023-02-21T05:00:35;99480.97;;;7.99;100.00
61573;BME280;47465;43.094;12.434;2023-02-21T05:03:01;99451.94;;;7.82;100.00
61573;BME280;47465;43.094;12.434;2023-02-21T05:05:28;99483.63;;;8.00;100.00
61573;BME280;47465;43.094;12.434;2023-02-21T05:07:54;99473.03;;;8.00;100.00
61573;BME280;47465;43.094;12.434;2023-02-21T05:10:20;99458.94;;;7.91;100.00
61573;BME280;47465;43.094;12.434;2023-02-21T05:12:46;99482.69;;;8.06;100.00
61573;BME280;47465;43.094;12.434;2023-02-21T05:15:13;99470.38;;;7.97;100.00
61573;BME280;47465;43.094;12.434;2023-02-21T05:17:39;99473.00;;;8.03;100.00
61573;BME280;47465;43.094;12.434;2023-02-21T05:20:06;99458.91;;;8.05;100.00
61573;BME280;47465;43.094;12.434;2023-02-21T05:22:37;99462.31;;;8.17;100.00
61573;BME280;47465;43.094;12.434;2023-02-21T05:25:05;99481.72;;;8.27;100.00
61573;BME280;47465;43.094;12.434;2023-02-21T05:27:31;99457.09;;;8.07;100.00
61573;BME280;47465;43.094;12.434;2023-02-21T05:29:57;99472.13;;;8.03;100.00
61573;BME280;47465;43.094;12.434;2023-02-21T05:32:23;99451.00;;;7.91;100.00
61573;BME280;47465;43.094;12.434;2023-02-21T05:34:48;99473.88;;;8.07;100.00
61573;BME280;47465;43.094;12.434;2023-02-21T05:37:15;99447.47;;;7.96;100.00
61573;BME280;47465;43.094;12.434;2023-02-21T05:39:43;99443.94;;;7.94;100.00
61573;BME280;47465;43.094;12.434;2023-02-21T05:42:09;99468.66;;;7.93;100.00
61573;BME280;47465;43.094;12.434;2023-02-21T05:44:35;99449.31;;;7.79;100.00
61573;BME280;47465;43.094;12.434;2023-02-21T05:47:01;99447.59;;;7.67;100.00
61573;BME280;47465;43.094;12.434;2023-02-21T05:49:27;99474.03;;;7.72;100.00
61573;BME280;47465;43.094;12.434;2023-02-21T05:51:53;99469.59;;;7.78;100.00
61573;BME280;47465;43.094;12.434;2023-02-21T05:54:20;99452.88;;;7.75;100.00
61573;BME280;47465;43.094;12.434;2023-02-21T05:56:49;99451.09;;;7.77;100.00
61573;BME280;47465;43.094;12.434;2023-02-21T05:59:16;99456.38;;;7.77;100.00
61573;BME280;47465;43.094;12.434;2023-02-21T06:01:44;99471.34;;;7.86;100.00
61573;BME280;47465;43.094;12.434;2023-02-21T06:04:10;99450.94;;;8.03;100.00
61573;BME280;47465;43.094;12.434;2023-02-21T06:06:36;99467.66;;;8.13;100.00
61573;BME280;47465;43.094;12.434;2023-02-21T06:09:03;99466.78;;;8.12;100.00
61573;BME280;47465;43.094;12.434;2023-02-21T06:11:30;99473.84;;;8.12;100.00
61573;BME280;47465;43.094;12.434;2023-02-21T06:14:00;99473.94;;;7.96;100.00
61573;BME280;47465;43.094;12.434;2023-02-21T06:16:31;99448.41;;;7.83;100.00
61573;BME280;47465;43.094;12.434;2023-02-21T06:18:57;99457.19;;;7.91;100.00
61573;BME280;47465;43.094;12.434;2023-02-21T06:21:23;99454.59;;;7.77;100.00
61573;BME280;47465;43.094;12.434;2023-02-21T06:23:49;99468.75;;;7.76;100.00
61573;BME280;47465;43.094;12.434;2023-02-21T06:26:16;99445.97;;;7.29;100.00
61573;BME280;47465;43.094;12.434;2023-02-21T06:28:42;99449.47;;;7.40;100.00
61573;BME280;47465;43.094;12.434;2023-02-21T06:31:10;99475.88;;;7.51;100.00
61573;BME280;47465;43.094;12.434;2023-02-21T06:33:41;99484.69;;;7.59;100.00
61573;BME280;47465;43.094;12.434;2023-02-21T06:36:12;99482.97;;;7.41;100.00
61573;BME280;47465;43.094;12.434;2023-02-21T06:38:38;99456.56;;;7.31;100.00
61573;BME280;47465;43.094;12.434;2023-02-21T06:41:07;99467.97;;;7.39;100.00
61573;BME280;47465;43.094;12.434;2023-02-21T06:43:33;99464.44;;;7.49;100.00
61573;BME280;47465;43.094;12.434;2023-02-21T06:46:01;99466.16;;;7.59;100.00
61573;BME280;47465;43.094;12.434;2023-02-21T06:48:28;99447.69;;;7.47;100.00
61573;BME280;47465;43.094;12.434;2023-02-21T06:50:54;99468.78;;;7.61;100.00
61573;BME280;47465;43.094;12.434;2023-02-21T06:53:20;99459.06;;;7.65;100.00
61573;BME280;47465;43.094;12.434;2023-02-21T06:55:46;99459.00;;;7.83;100.00
61573;BME280;47465;43.094;12.434;2023-02-21T06:58:12;99454.63;;;7.74;100.00
61573;BME280;47465;43.094;12.434;2023-02-21T07:00:38;99488.06;;;7.91;100.00
61573;BME280;47465;43.094;12.434;2023-02-21T07:03:04;99452.81;;;7.86;100.00
61573;BME280;47465;43.094;12.434;2023-02-21T07:05:31;99472.06;;;8.12;100.00
61573;BME280;47465;43.094;12.434;2023-02-21T07:08:03;99453.63;;;7.98;100.00
61573;BME280;47465;43.094;12.434;2023-02-21T07:10:29;99456.38;;;7.77;100.00
61573;BME280;47465;43.094;12.434;2023-02-21T07:12:55;99464.31;;;7.77;100.00
61573;BME280;47465;43.094;12.434;2023-02-21T07:15:21;99459.03;;;7.77;100.00
61573;BME280;47465;43.094;12.434;2023-02-21T07:17:47;99450.16;;;7.86;100.00
61573;BME280;47465;43.094;12.434;2023-02-21T07:20:13;99467.72;;;8.03;100.00
61573;BME280;47465;43.094;12.434;2023-02-21T07:22:41;99454.47;;;8.03;100.00
61573;BME280;47465;43.094;12.434;2023-02-21T07:25:07;99462.28;;;8.25;100.00
61573;BME280;47465;43.094;12.434;2023-02-21T07:27:33;99461.38;;;8.28;100.00
61573;BME280;47465;43.094;12.434;2023-02-21T07:29:59;99471.13;;;8.21;100.00
61573;BME280;47465;43.094;12.434;2023-02-21T07:32:25;99453.53;;;8.14;100.00
61573;BME280;47465;43.094;12.434;2023-02-21T07:34:50;99465.84;;;8.24;100.00
61573;BME280;47465;43.094;12.434;2023-02-21T07:37:16;99436.75;;;8.09;100.00
61573;BME280;47465;43.094;12.434;2023-02-21T07:39:44;99441.19;;;8.10;100.00
61573;BME280;47465;43.094;12.434;2023-02-21T07:42:10;99461.41;;;8.25;100.00
61573;BME280;47465;43.094;12.434;2023-02-21T07:44:37;99449.06;;;8.19;100.00
61573;BME280;47465;43.094;12.434;2023-02-21T07:47:03;99451.69;;;8.23;100.00
61573;BME280;47465;43.094;12.434;2023-02-21T07:49:29;99449.03;;;8.23;100.00
61573;BME280;47465;43.094;12.434;2023-02-21T07:51:55;99465.69;;;8.46;100.00
61573;BME280;47465;43.094;12.434;2023-02-21T07:54:21;99462.13;;;8.53;100.00
61573;BME280;47465;43.094;12.434;2023-02-21T07:56:49;99462.97;;;8.59;100.00
61573;BME280;47465;43.094;12.434;2023-02-21T07:59:15;99434.75;;;8.51;100.00
61573;BME280;47465;43.094;12.434;2023-02-21T08:01:41;99461.09;;;8.69;100.00
61573;BME280;47465;43.094;12.434;2023-02-21T08:04:07;99445.31;;;8.57;100.00
61573;BME280;47465;43.094;12.434;2023-02-21T08:06:33;99433.75;;;8.64;100.00
61573;BME280;47465;43.094;12.434;2023-02-21T08:08:59;99450.44;;;8.75;100.00
61573;BME280;47465;43.094;12.434;2023-02-21T08:11:25;99438.97;;;8.73;100.00
61573;BME280;47465;43.094;12.434;2023-02-21T08:13:53;99446.97;;;8.70;100.00
61573;BME280;47465;43.094;12.434;2023-02-21T08:16:18;99433.75;;;8.62;100.00
61573;BME280;47465;43.094;12.434;2023-02-21T08:18:46;99434.66;;;8.61;100.00
61573;BME280;47465;43.094;12.434;2023-02-21T08:21:12;99452.28;;;8.69;100.00
61573;BME280;47465;43.094;12.434;2023-02-21T08:23:38;99455.69;;;8.81;100.00
61573;BME280;47465;43.094;12.434;2023-02-21T08:26:04;99459.25;;;8.79;100.00
61573;BME280;47465;43.094;12.434;2023-02-21T08:28:30;99454.84;;;8.79;100.00
61573;BME280;47465;43.094;12.434;2023-02-21T08:30:58;99447.75;;;8.80;100.00
61573;BME280;47465;43.094;12.434;2023-02-21T08:33:24;99431.78;;;8.86;100.00
61573;BME280;47465;43.094;12.434;2023-02-21T08:35:50;99444.13;;;8.92;100.00
61573;BME280;47465;43.094;12.434;2023-02-21T08:38:17;99438.72;;;9.01;100.00
61573;BME280;47465;43.094;12.434;2023-02-21T08:40:43;99458.19;;;8.98;100.00
61573;BME280;47465;43.094;12.434;2023-02-21T08:43:10;99443.97;;;9.04;100.00
61573;BME280;47465;43.094;12.434;2023-02-21T08:45:36;99455.22;;;9.29;100.00
61573;BME280;47465;43.094;12.434;2023-02-21T08:48:03;99438.56;;;9.16;100.00
61573;BME280;47465;43.094;12.434;2023-02-21T08:50:29;99459.63;;;9.32;100.00
61573;BME280;47465;43.094;12.434;2023-02-21T08:52:55;99467.47;;;9.41;100.00
61573;BME280;47465;43.094;12.434;2023-02-21T08:55:22;99462.13;;;9.45;100.00
61573;BME280;47465;43.094;12.434;2023-02-21T08:57:48;99445.31;;;9.45;100.00
61573;BME280;47465;43.094;12.434;2023-02-21T09:00:15;99460.16;;;9.61;100.00
61573;BME280;47465;43.094;12.434;2023-02-21T09:02:42;99439.94;;;9.50;100.00
61573;BME280;47465;43.094;12.434;2023-02-21T09:05:12;99465.22;;;9.83;100.00
61573;BME280;47465;43.094;12.434;2023-02-21T09:07:38;99443.00;;;9.88;98.91
61573;BME280;47465;43.094;12.434;2023-02-21T09:10:05;99430.75;;;9.77;98.74
61573;BME280;47465;43.094;12.434;2023-02-21T09:12:31;99439.75;;;9.66;100.00
61573;BME280;47465;43.094;12.434;2023-02-21T09:14:57;99453.88;;;9.67;100.00
61573;BME280;47465;43.094;12.434;2023-02-21T09:17:23;99436.28;;;9.58;100.00
61573;BME280;47465;43.094;12.434;2023-02-21T09:19:49;99430.84;;;9.71;100.00
61573;BME280;47465;43.094;12.434;2023-02-21T09:22:17;99444.81;;;9.85;100.00
61573;BME280;47465;43.094;12.434;2023-02-21T09:24:43;99428.03;;;9.81;100.00
61573;BME280;47465;43.094;12.434;2023-02-21T09:27:09;99427.31;;;9.69;100.00
61573;BME280;47465;43.094;12.434;2023-02-21T09:29:35;99445.59;;;9.93;100.00
61573;BME280;47465;43.094;12.434;2023-02-21T09:32:01;99456.03;;;10.05;100.00
61573;BME280;47465;43.094;12.434;2023-02-21T09:34:28;99446.19;;;10.14;100.00
61573;BME280;47465;43.094;12.434;2023-02-21T09:36:54;99432.81;;;10.21;100.00
61573;BME280;47465;43.094;12.434;2023-02-21T09:39:22;99429.09;;;10.35;100.00
61573;BME280;47465;43.094;12.434;2023-02-21T09:41:48;99453.41;;;10.66;98.97
61573;BME280;47465;43.094;12.434;2023-02-21T09:44:17;99417.97;;;10.64;97.43
61573;BME280;47465;43.094;12.434;2023-02-21T09:46:47;99442.47;;;10.83;96.71
61573;BME280;47465;43.094;12.434;2023-02-21T09:49:20;99436.97;;;10.94;95.65
61573;BME280;47465;43.094;12.434;2023-02-21T09:51:47;99431.56;;;10.98;95.18
61573;BME280;47465;43.094;12.434;2023-02-21T09:54:18;99452.56;;;11.15;93.94
61573;BME280;47465;43.094;12.434;2023-02-21T09:56:49;99433.91;;;11.15;93.79
61573;BME280;47465;43.094;12.434;2023-02-21T09:59:15;99426.72;;;11.20;93.44
61573;BME280;47465;43.094;12.434;2023-02-21T10:01:52;99424.78;;;11.28;93.58
61573;BME280;47465;43.094;12.434;2023-02-21T10:04:27;99415.94;;;11.26;91.56
61573;BME280;47465;43.094;12.434;2023-02-21T10:07:01;99422.00;;;11.35;91.83
61573;BME280;47465;43.094;12.434;2023-02-21T10:09:38;99437.56;;;11.55;91.09
61573;BME280;47465;43.094;12.434;2023-02-21T10:12:13;99444.38;;;11.71;90.93
61573;BME280;47465;43.094;12.434;2023-02-21T10:14:56;99447.50;;;11.91;90.00
61573;BME280;47465;43.094;12.434;2023-02-21T10:17:30;99431.53;;;11.90;87.97
61573;BME280;47465;43.094;12.434;2023-02-21T10:20:02;99422.72;;;11.86;87.84
61573;BME280;47465;43.094;12.434;2023-02-21T10:22:33;99429.59;;;11.97;87.32
61573;BME280;47465;43.094;12.434;2023-02-21T10:25:00;99424.47;;;11.86;86.91
61573;BME280;47465;43.094;12.434;2023-02-21T10:27:30;99428.00;;;11.89;86.66
61573;BME280;47465;43.094;12.434;2023-02-21T10:30:00;99419.06;;;11.92;86.72
61573;BME280;47465;43.094;12.434;2023-02-21T10:32:29;99430.28;;;12.06;86.51
61573;BME280;47465;43.094;12.434;2023-02-21T10:34:55;99437.22;;;12.15;85.38
61573;BME280;47465;43.094;12.434;2023-02-21T10:37:31;99404.72;;;11.98;85.46
61573;BME280;47465;43.094;12.434;2023-02-21T10:40:02;99411.63;;;12.06;85.85
61573;BME280;47465;43.094;12.434;2023-02-21T10:42:36;99401.69;;;12.15;85.36
61573;BME280;47465;43.094;12.434;2023-02-21T10:45:04;99397.00;;;12.23;84.50
61573;BME280;47465;43.094;12.434;2023-02-21T10:47:43;99401.22;;;12.33;84.25
61573;BME280;47465;43.094;12.434;2023-02-21T10:50:10;99387.34;;;12.19;85.33
61573;BME280;47465;43.094;12.434;2023-02-21T10:52:37;99396.00;;;12.28;84.37
61573;BME280;47465;43.094;12.434;2023-02-21T10:55:15;99406.31;;;12.42;84.46
61573;BME280;47465;43.094;12.434;2023-02-21T10:57:44;99378.28;;;12.27;84.21
61573;BME280;47465;43.094;12.434;2023-02-21T11:00:21;99399.41;;;12.35;83.80
61573;BME280;47465;43.094;12.434;2023-02-21T11:02:50;99394.16;;;12.32;83.64
61573;BME280;47465;43.094;12.434;2023-02-21T11:05:19;99398.41;;;12.39;82.37
61573;BME280;47465;43.094;12.434;2023-02-21T11:07:56;99376.59;;;12.22;82.63
61573;BME280;47465;43.094;12.434;2023-02-21T11:10:29;99388.09;;;12.25;82.60
61573;BME280;47465;43.094;12.434;2023-02-21T11:13:06;99399.53;;;12.29;83.14
61573;BME280;47465;43.094;12.434;2023-02-21T11:15:32;99389.97;;;12.20;83.47
61573;BME280;47465;43.094;12.434;2023-02-21T11:18:04;99393.56;;;12.19;84.03
61573;BME280;47465;43.094;12.434;2023-02-21T11:20:31;99381.22;;;12.15;84.06
61573;BME280;47465;43.094;12.434;2023-02-21T11:22:58;99360.00;;;12.10;83.90
61573;BME280;47465;43.094;12.434;2023-02-21T11:25:26;99372.09;;;12.25;84.36
61573;BME280;47465;43.094;12.434;2023-02-21T11:28:05;99373.56;;;12.37;84.17
61573;BME280;47465;43.094;12.434;2023-02-21T11:30:32;99366.28;;;12.44;83.04
61573;BME280;47465;43.094;12.434;2023-02-21T11:32:59;99335.75;;;12.21;83.68
61573;BME280;47465;43.094;12.434;2023-02-21T11:35:28;99362.66;;;12.10;83.24
61573;BME280;47465;43.094;12.434;2023-02-21T11:37:57;99338.72;;;12.07;83.01
61573;BME280;47465;43.094;12.434;2023-02-21T11:40:32;99323.72;;;12.03;82.86
61573;BME280;47465;43.094;12.434;2023-02-21T11:43:17;99341.22;;;12.15;82.30
61573;BME280;47465;43.094;12.434;2023-02-21T11:46:08;99312.91;;;12.09;82.34
61573;BME280;47465;43.094;12.434;2023-02-21T11:48:41;99299.69;;;12.05;83.00
61573;BME280;47465;43.094;12.434;2023-02-21T11:51:17;99317.94;;;12.22;82.30
61573;BME280;47465;43.094;12.434;2023-02-21T11:53:48;99304.00;;;12.10;81.96
61573;BME280;47465;43.094;12.434;2023-02-21T11:56:23;99318.00;;;12.19;81.56
61573;BME280;47465;43.094;12.434;2023-02-21T12:05:40;99294.31;;;12.42;81.13
61573;BME280;47465;43.094;12.434;2023-02-21T12:08:31;99293.16;;;12.52;81.08
61573;BME280;47465;43.094;12.434;2023-02-21T12:11:11;99279.13;;;12.44;80.08
61573;BME280;47465;43.094;12.434;2023-02-21T12:13:41;99297.34;;;12.63;80.43
61573;BME280;47465;43.094;12.434;2023-02-21T12:16:15;99275.44;;;12.50;79.68
61573;BME280;47465;43.094;12.434;2023-02-21T12:18:56;99263.97;;;12.46;80.83
61573;BME280;47465;43.094;12.434;2023-02-21T12:24:48;99289.75;;;12.80;79.17
61573;BME280;47465;43.094;12.434;2023-02-21T12:27:30;99265.91;;;12.72;79.76
61573;BME280;47465;43.094;12.434;2023-02-21T12:30:06;99274.72;;;12.76;78.12
61573;BME280;47465;43.094;12.434;2023-02-21T12:32:47;99242.97;;;12.67;78.61
61573;BME280;47465;43.094;12.434;2023-02-21T12:35:52;99246.84;;;12.55;79.54
61573;BME280;47465;43.094;12.434;2023-02-21T12:38:31;99237.25;;;12.48;80.54
61573;BME280;47465;43.094;12.434;2023-02-21T12:41:08;99241.59;;;12.52;80.05
61573;BME280;47465;43.094;12.434;2023-02-21T12:43:49;99244.22;;;12.53;79.27
61573;BME280;47465;43.094;12.434;2023-02-21T12:46:24;99237.97;;;12.54;79.59
61573;BME280;47465;43.094;12.434;2023-02-21T12:49:32;99228.69;;;12.37;79.12
61573;BME280;47465;43.094;12.434;2023-02-21T12:51:59;99237.38;;;12.43;79.99
61573;BME280;47465;43.094;12.434;2023-02-21T12:54:36;99252.69;;;12.37;79.41
61573;BME280;47465;43.094;12.434;2023-02-21T12:57:08;99248.06;;;12.43;80.38
61573;BME280;47465;43.094;12.434;2023-02-21T12:59:47;99245.25;;;12.48;80.95
61573;BME280;47465;43.094;12.434;2023-02-21T13:02:22;99237.28;;;12.46;81.27
61573;BME280;47465;43.094;12.434;2023-02-21T13:04:53;99232.06;;;12.43;80.19
61573;BME280;47465;43.094;12.434;2023-02-21T13:07:23;99239.81;;;12.51;79.92
61573;BME280;47465;43.094;12.434;2023-02-21T13:10:29;99253.28;;;12.46;80.45
61573;BME280;47465;43.094;12.434;2023-02-21T13:13:08;99207.63;;;12.26;80.91
61573;BME280;47465;43.094;12.434;2023-02-21T13:16:16;99218.88;;;12.37;80.92
61573;BME280;47465;43.094;12.434;2023-02-21T13:18:46;99209.22;;;12.33;80.73
61573;BME280;47465;43.094;12.434;2023-02-21T13:21:24;99205.75;;;12.29;81.86
61573;BME280;47465;43.094;12.434;2023-02-21T13:24:14;99228.38;;;12.47;82.06
61573;BME280;47465;43.094;12.434;2023-02-21T13:27:47;99219.47;;;12.48;82.06
61573;BME280;47465;43.094;12.434;2023-02-21T13:33:59;99218.78;;;12.40;82.21
61573;BME280;47465;43.094;12.434;2023-02-21T13:36:29;99215.41;;;12.33;82.68
61573;BME280;47465;43.094;12.434;2023-02-21T13:39:00;99196.97;;;12.26;82.56
61573;BME280;47465;43.094;12.434;2023-02-21T13:41:28;99184.53;;;12.25;83.08
61573;BME280;47465;43.094;12.434;2023-02-21T13:44:03;99187.84;;;12.35;82.20
61573;BME280;47465;43.094;12.434;2023-02-21T13:47:05;99204.94;;;12.59;81.81
61573;BME280;47465;43.094;12.434;2023-02-21T13:49:49;99192.41;;;12.62;81.57
61573;BME280;47465;43.094;12.434;2023-02-21T13:52:52;99193.13;;;12.67;80.36